createdAt,value
2019-05-03T00:02:21.848Z,13.70
2019-05-03T00:04:57.077Z,13.60
2019-05-03T00:07:24.020Z,13.60
2019-05-03T00:09:52.061Z,13.70
2019-05-03T00:12:19.218Z,13.60
2019-05-03T00:14:47.998Z,13.70
2019-05-03T00:17:15.040Z,13.70
2019-05-03T00:19:42.322Z,13.70
2019-05-03T00:22:09.506Z,13.80
2019-05-03T00:24:36.373Z,13.70
2019-05-03T00:27:03.423Z,13.70
2019-05-03T00:29:32.378Z,13.70
2019-05-03T00:31:59.247Z,13.60
2019-05-03T00:34:32.380Z,13.60
2019-05-03T00:37:16.622Z,13.60
2019-05-03T00:39:54.600Z,13.60
2019-05-03T00:42:22.489Z,13.50
2019-05-03T00:44:51.577Z,13.40
2019-05-03T00:47:18.387Z,13.30
2019-05-03T00:49:45.353Z,13.30
2019-05-03T00:52:12.316Z,13.30
2019-05-03T00:54:39.253Z,13.20
2019-05-03T00:57:06.116Z,13.20
2019-05-03T00:59:33.020Z,13.20
2019-05-03T01:02:02.536Z,13.10
2019-05-03T01:04:29.111Z,13.10
2019-05-03T01:06:56.003Z,13.00
2019-05-03T01:09:23.498Z,13.00
2019-05-03T01:11:52.353Z,13.00
2019-05-03T01:14:19.423Z,12.90
2019-05-03T01:16:46.382Z,12.90
2019-05-03T01:19:13.300Z,12.90
2019-05-03T01:21:42.165Z,12.90
2019-05-03T01:24:09.160Z,12.80
2019-05-03T01:26:36.111Z,12.90
2019-05-03T01:29:03.131Z,12.90
2019-05-03T01:31:31.813Z,12.90
2019-05-03T01:33:58.935Z,12.90
2019-05-03T01:36:25.933Z,12.90
2019-05-03T01:38:53.270Z,12.90
2019-05-03T01:41:21.666Z,12.90
2019-05-03T01:43:48.837Z,12.80
2019-05-03T01:46:15.803Z,12.70
2019-05-03T01:48:44.708Z,12.70
2019-05-03T01:51:13.569Z,12.60
2019-05-03T01:53:41.673Z,12.60
2019-05-03T01:56:08.882Z,12.50
2019-05-03T01:58:35.863Z,12.50
2019-05-03T02:01:12.540Z,12.40
2019-05-03T02:03:47.063Z,12.30
2019-05-03T02:06:14.120Z,12.30
2019-05-03T02:08:41.832Z,12.20
2019-05-03T02:11:08.927Z,12.10
2019-05-03T02:13:35.940Z,12.00
2019-05-03T02:16:03.035Z,11.90
2019-05-03T02:18:31.762Z,11.80
2019-05-03T02:20:58.807Z,11.70
2019-05-03T02:23:25.723Z,11.70
2019-05-03T02:25:56.795Z,11.60
2019-05-03T02:28:22.093Z,11.60
2019-05-03T02:30:49.311Z,11.50
2019-05-03T02:33:16.311Z,11.50
2019-05-03T02:35:43.242Z,11.40
2019-05-03T02:38:12.805Z,11.40
2019-05-03T02:40:39.069Z,11.40
2019-05-03T02:43:10.466Z,11.40
2019-05-03T02:45:51.076Z,11.40
2019-05-03T02:48:29.088Z,11.40
2019-05-03T02:50:56.300Z,11.30
2019-05-03T02:53:25.878Z,11.30
2019-05-03T02:55:52.143Z,11.30
2019-05-03T02:58:19.105Z,11.30
2019-05-03T03:00:58.625Z,11.30
2019-05-03T03:03:26.179Z,11.30
2019-05-03T03:05:56.100Z,11.20
2019-05-03T03:08:25.950Z,11.20
2019-05-03T03:10:57.702Z,11.20
2019-05-03T03:13:27.261Z,11.30
2019-05-03T03:15:56.037Z,11.30
2019-05-03T03:18:25.562Z,11.30
2019-05-03T03:20:55.267Z,11.40
2019-05-03T03:23:26.435Z,11.40
2019-05-03T03:25:56.017Z,11.40
2019-05-03T03:28:25.274Z,11.30
2019-05-03T03:31:22.705Z,11.40
2019-05-03T03:33:50.099Z,11.40
2019-05-03T03:36:53.251Z,11.40
2019-05-03T03:38:45.988Z,11.30
2019-05-03T03:41:16.319Z,11.30
2019-05-03T03:43:46.709Z,11.30
2019-05-03T03:46:15.825Z,11.30
2019-05-03T03:48:46.028Z,11.20
2019-05-03T03:51:15.627Z,11.20
2019-05-03T03:53:46.527Z,11.20
2019-05-03T03:56:15.992Z,11.10
2019-05-03T03:58:46.162Z,11.20
2019-05-03T04:01:12.149Z,11.30
2019-05-03T04:03:39.238Z,11.30
2019-05-03T04:06:06.355Z,11.30
2019-05-03T04:08:36.079Z,11.40
2019-05-03T04:11:06.248Z,11.40
2019-05-03T04:13:35.990Z,11.40
2019-05-03T04:16:10.547Z,11.40
2019-05-03T04:18:51.767Z,11.50
2019-05-03T04:21:18.991Z,11.60
2019-05-03T04:23:46.028Z,11.60
2019-05-03T04:26:15.993Z,11.70
2019-05-03T04:28:45.276Z,11.70
2019-05-03T04:31:11.276Z,11.80
2019-05-03T04:33:38.303Z,11.80
2019-05-03T04:36:05.635Z,11.80
2019-05-03T04:38:32.687Z,11.80
2019-05-03T04:40:59.676Z,11.80
2019-05-03T04:43:26.863Z,11.80
2019-05-03T04:46:07.552Z,11.80
2019-05-03T04:48:35.775Z,11.80
2019-05-03T04:51:05.626Z,11.80
2019-05-03T04:53:35.793Z,11.90
2019-05-03T04:56:05.516Z,11.90
2019-05-03T04:58:31.786Z,11.90
2019-05-03T05:00:58.697Z,11.90
2019-05-03T05:03:26.568Z,11.80
2019-05-03T05:05:55.843Z,11.90
2019-05-03T05:08:25.154Z,11.90
2019-05-03T05:10:51.477Z,11.90
2019-05-03T05:13:18.454Z,11.80
2019-05-03T05:15:46.059Z,11.80
2019-05-03T05:18:21.478Z,11.80
2019-05-03T05:20:50.380Z,11.80
2019-05-03T05:23:17.452Z,11.90
2019-05-03T05:25:55.233Z,11.90
2019-05-03T05:28:24.973Z,11.90
2019-05-03T05:30:52.207Z,11.90
2019-05-03T05:33:20.324Z,12.00
2019-05-03T05:35:49.061Z,12.00
2019-05-03T05:38:16.162Z,12.10
2019-05-03T05:40:45.015Z,12.20
2019-05-03T05:43:12.114Z,12.40
2019-05-03T05:45:39.025Z,12.40
2019-05-03T05:48:10.669Z,12.50
2019-05-03T05:50:42.233Z,12.50
2019-05-03T05:53:09.165Z,12.50
2019-05-03T05:55:41.231Z,12.50
2019-05-03T05:58:10.046Z,12.50
2019-05-03T06:00:38.986Z,12.60
2019-05-03T06:03:05.956Z,12.70
2019-05-03T06:05:32.990Z,12.70
2019-05-03T06:08:10.746Z,12.60
2019-05-03T06:10:39.706Z,12.60
2019-05-03T06:13:15.202Z,12.50
2019-05-03T06:15:49.993Z,12.50
2019-05-03T06:18:25.028Z,12.40
2019-05-03T06:21:00.155Z,12.40
2019-05-03T06:23:31.948Z,12.40
2019-05-03T06:26:04.897Z,12.40
2019-05-03T06:28:35.108Z,12.40
2019-05-03T06:31:21.132Z,12.30
2019-05-03T06:33:47.861Z,12.30
2019-05-03T06:36:15.340Z,12.30
2019-05-03T06:38:44.592Z,12.40
2019-05-03T06:41:11.368Z,12.70
2019-05-03T06:43:39.574Z,12.90
2019-05-03T06:46:07.324Z,13.00
2019-05-03T06:48:35.200Z,12.90
2019-05-03T06:51:08.748Z,12.80
2019-05-03T06:53:31.138Z,12.70
2019-05-03T06:55:59.732Z,12.60
2019-05-03T06:58:33.059Z,12.60
2019-05-03T07:00:57.316Z,12.60
2019-05-03T07:03:32.186Z,12.60
2019-05-03T07:06:06.902Z,12.60
2019-05-03T07:08:47.444Z,12.60
2019-05-03T07:11:15.452Z,12.50
2019-05-03T07:13:44.828Z,12.50
2019-05-03T07:16:11.433Z,12.50
2019-05-03T07:18:39.115Z,12.50
2019-05-03T07:21:06.116Z,12.50
2019-05-03T07:23:34.767Z,12.40
2019-05-03T07:26:02.294Z,12.40
2019-05-03T07:28:29.717Z,12.40
2019-05-03T07:30:56.768Z,12.40
2019-05-03T07:33:34.713Z,13.90
2019-05-03T07:36:02.108Z,14.00
2019-05-03T07:38:29.200Z,14.90
2019-05-03T07:40:56.498Z,14.50
2019-05-03T07:43:24.494Z,14.00
2019-05-03T07:45:51.660Z,13.60
2019-05-03T07:48:18.709Z,14.00
2019-05-03T07:50:48.614Z,14.90
2019-05-03T07:53:15.605Z,15.60
2019-05-03T07:55:50.596Z,16.10
2019-05-03T07:58:19.543Z,16.50
2019-05-03T08:00:48.100Z,16.70
2019-05-03T08:03:15.545Z,17.50
2019-05-03T08:05:42.690Z,17.20
2019-05-03T08:08:09.849Z,16.50
2019-05-03T08:10:37.038Z,16.00
2019-05-03T08:13:04.660Z,15.90
2019-05-03T08:15:31.932Z,16.40
2019-05-03T08:17:58.868Z,16.30
2019-05-03T08:20:25.887Z,16.20
2019-05-03T08:22:54.722Z,16.20
2019-05-03T08:25:21.946Z,16.10
2019-05-03T08:27:48.970Z,16.30
2019-05-03T08:30:18.916Z,16.40
2019-05-03T08:32:54.882Z,16.10
2019-05-03T08:35:26.996Z,15.80
2019-05-03T08:37:58.502Z,15.60
2019-05-03T08:40:27.439Z,15.50
2019-05-03T08:42:55.019Z,15.60
2019-05-03T08:45:22.343Z,15.60
2019-05-03T08:47:49.926Z,15.60
2019-05-03T08:50:21.357Z,15.60
2019-05-03T08:52:45.843Z,16.00
2019-05-03T08:55:13.048Z,15.70
2019-05-03T08:57:40.363Z,15.40
2019-05-03T09:00:09.649Z,15.30
2019-05-03T09:02:36.632Z,15.20
2019-05-03T09:05:05.418Z,15.30
2019-05-03T09:07:32.559Z,15.40
2019-05-03T09:10:20.331Z,15.70
2019-05-03T09:13:07.198Z,15.90
2019-05-03T09:15:35.122Z,15.70
2019-05-03T09:18:04.845Z,15.60
2019-05-03T09:20:32.470Z,15.50
2019-05-03T09:23:00.873Z,15.40
2019-05-03T09:25:28.146Z,15.30
2019-05-03T09:27:55.330Z,15.20
2019-05-03T09:30:24.977Z,15.10
2019-05-03T09:32:51.591Z,15.10
2019-05-03T09:35:29.701Z,15.20
2019-05-03T09:37:47.611Z,15.20
2019-05-03T09:40:15.223Z,15.30
2019-05-03T09:42:44.328Z,15.20
2019-05-03T09:45:15.233Z,15.20
2019-05-03T09:47:42.262Z,15.10
2019-05-03T09:50:09.330Z,15.20
2019-05-03T09:52:36.371Z,15.40
2019-05-03T09:55:05.600Z,15.60
2019-05-03T09:57:34.645Z,15.70
2019-05-03T10:00:01.693Z,15.80
2019-05-03T10:02:28.729Z,15.60
2019-05-03T10:04:55.776Z,15.50
2019-05-03T10:07:22.853Z,15.20
2019-05-03T10:09:49.828Z,15.10
2019-05-03T10:12:18.679Z,15.20
2019-05-03T10:14:45.576Z,15.20
2019-05-03T10:17:15.982Z,15.30
2019-05-03T10:19:45.051Z,15.30
2019-05-03T10:22:15.021Z,15.10
2019-05-03T10:24:42.173Z,15.00
2019-05-03T10:27:09.499Z,15.00
2019-05-03T10:29:36.541Z,15.10
2019-05-03T10:32:08.511Z,15.10
2019-05-03T10:34:35.770Z,15.10
2019-05-03T10:37:05.078Z,15.10
2019-05-03T10:39:31.704Z,15.30
2019-05-03T10:41:58.814Z,15.30
2019-05-03T10:44:26.335Z,15.30
2019-05-03T10:46:53.316Z,15.40
2019-05-03T10:49:20.499Z,15.50
2019-05-03T10:51:55.194Z,15.40
2019-05-03T10:54:22.284Z,15.30
2019-05-03T10:56:55.464Z,15.10
2019-05-03T10:59:24.674Z,15.10
2019-05-03T11:01:59.662Z,15.10
2019-05-03T11:04:28.003Z,14.90
2019-05-03T11:06:55.200Z,14.90
2019-05-03T11:09:22.664Z,15.00
2019-05-03T11:11:49.801Z,15.10
2019-05-03T11:14:16.881Z,15.20
2019-05-03T11:16:46.069Z,15.30
2019-05-03T11:19:14.553Z,15.20
2019-05-03T11:21:41.616Z,15.10
2019-05-03T11:24:08.494Z,15.00
2019-05-03T11:26:36.033Z,15.00
2019-05-03T11:29:04.969Z,15.00
2019-05-03T11:31:48.860Z,15.10
2019-05-03T11:34:18.326Z,15.20
2019-05-03T11:37:05.529Z,15.30
2019-05-03T11:39:34.429Z,15.40
2019-05-03T11:42:01.337Z,15.60
2019-05-03T11:44:37.637Z,15.70
2019-05-03T11:47:05.791Z,15.60
2019-05-03T11:49:34.870Z,15.70
2019-05-03T11:52:02.009Z,15.70
2019-05-03T11:54:29.370Z,15.60
2019-05-03T11:56:58.297Z,15.60
2019-05-03T11:59:26.586Z,15.50
2019-05-03T12:02:07.514Z,15.40
2019-05-03T12:04:35.345Z,15.40
2019-05-03T12:07:02.855Z,15.40
2019-05-03T12:09:30.010Z,15.50
2019-05-03T12:11:57.660Z,15.50
2019-05-03T12:14:24.605Z,15.50
2019-05-03T12:17:17.330Z,15.60
2019-05-03T12:19:28.177Z,15.70
2019-05-03T12:21:52.314Z,15.80
2019-05-03T12:24:20.269Z,15.80
2019-05-03T12:26:48.001Z,15.60
2019-05-03T12:29:15.361Z,15.40
2019-05-03T12:31:42.408Z,15.30
2019-05-03T12:34:09.459Z,15.10
2019-05-03T12:36:39.064Z,15.10
2019-05-03T12:39:05.945Z,15.10
2019-05-03T12:41:32.829Z,15.30
2019-05-03T12:44:00.099Z,15.40
2019-05-03T12:46:27.263Z,15.60
2019-05-03T12:48:54.317Z,15.60
2019-05-03T12:51:25.140Z,15.50
2019-05-03T12:53:50.641Z,15.40
2019-05-03T12:56:24.031Z,15.30
2019-05-03T12:58:49.459Z,15.20
2019-05-03T13:01:25.084Z,15.20
2019-05-03T13:04:10.025Z,15.20
2019-05-03T13:06:38.977Z,15.20
2019-05-03T13:09:06.819Z,15.30
2019-05-03T13:11:36.602Z,15.20
2019-05-03T13:14:04.799Z,15.40
2019-05-03T13:16:32.563Z,15.50
2019-05-03T13:18:59.544Z,15.60
2019-05-03T13:21:26.557Z,15.60
2019-05-03T13:23:54.782Z,15.70
2019-05-03T13:26:22.163Z,15.70
2019-05-03T13:28:49.347Z,15.80
2019-05-03T13:31:16.301Z,15.90
2019-05-03T13:33:45.317Z,16.00
2019-05-03T13:36:15.062Z,15.80
2019-05-03T13:38:42.174Z,15.60
2019-05-03T13:41:09.249Z,15.40
2019-05-03T13:43:37.695Z,15.30
2019-05-03T13:46:05.321Z,15.40
2019-05-03T13:48:42.552Z,15.50
2019-05-03T13:51:01.686Z,15.70
2019-05-03T13:53:28.801Z,15.90
2019-05-03T13:55:55.907Z,16.10
2019-05-03T13:58:26.404Z,16.10
2019-05-03T14:00:55.113Z,16.00
2019-05-03T14:03:22.296Z,15.90
2019-05-03T14:05:49.724Z,15.90
2019-05-03T14:08:16.823Z,15.90
2019-05-03T14:10:45.457Z,15.70
2019-05-03T14:13:12.817Z,15.70
2019-05-03T14:15:40.213Z,15.70
2019-05-03T14:18:25.510Z,15.60
2019-05-03T14:20:55.051Z,15.50
2019-05-03T14:23:22.438Z,15.50
2019-05-03T14:25:51.205Z,15.50
2019-05-03T14:28:18.381Z,15.40
2019-05-03T14:30:45.567Z,15.30
2019-05-03T14:33:12.645Z,15.40
2019-05-03T14:35:39.764Z,15.40
2019-05-03T14:38:06.805Z,15.50
2019-05-03T14:40:33.902Z,15.60
2019-05-03T14:43:04.683Z,15.70
2019-05-03T14:45:31.232Z,15.80
2019-05-03T14:47:58.132Z,15.90
2019-05-03T14:50:25.558Z,16.10
2019-05-03T14:52:54.572Z,16.10
2019-05-03T14:55:25.129Z,16.10
2019-05-03T14:57:59.968Z,16.10
2019-05-03T15:00:31.734Z,16.00
2019-05-03T15:03:04.696Z,16.10
2019-05-03T15:05:31.987Z,16.10
2019-05-03T15:07:59.032Z,15.90
2019-05-03T15:10:26.148Z,15.90
2019-05-03T15:12:53.141Z,15.80
2019-05-03T15:15:20.185Z,15.70
2019-05-03T15:17:47.593Z,15.60
2019-05-03T15:20:14.920Z,15.40
2019-05-03T15:22:41.945Z,15.30
2019-05-03T15:25:09.349Z,15.30
2019-05-03T15:27:36.478Z,15.30
2019-05-03T15:30:04.860Z,15.40
2019-05-03T15:32:31.936Z,15.50
2019-05-03T15:34:59.106Z,15.50
2019-05-03T15:37:26.091Z,15.50
2019-05-03T15:39:54.632Z,15.50
2019-05-03T15:42:23.122Z,15.50
2019-05-03T15:45:06.956Z,15.50
2019-05-03T15:47:38.402Z,15.60
2019-05-03T15:50:05.843Z,15.60
2019-05-03T15:52:33.056Z,15.70
2019-05-03T15:55:04.727Z,15.60
2019-05-03T15:57:38.264Z,15.60
2019-05-03T16:00:07.704Z,15.60
2019-05-03T16:02:35.166Z,15.60
2019-05-03T16:05:04.768Z,15.50
2019-05-03T16:07:31.969Z,15.50
2019-05-03T16:09:59.325Z,15.50
2019-05-03T16:12:26.326Z,15.40
2019-05-03T16:14:55.099Z,15.40
2019-05-03T16:17:22.276Z,15.40
2019-05-03T16:19:49.721Z,15.30
2019-05-03T16:22:16.833Z,15.30
2019-05-03T16:24:44.801Z,15.20
2019-05-03T16:27:15.620Z,15.20
2019-05-03T16:29:45.948Z,15.10
2019-05-03T16:32:13.559Z,15.10
2019-05-03T16:34:41.229Z,15.20
2019-05-03T16:37:08.349Z,15.20
2019-05-03T16:39:35.487Z,15.30
2019-05-03T16:42:04.263Z,15.20
2019-05-03T16:44:31.648Z,15.20
2019-05-03T16:46:58.766Z,15.10
2019-05-03T16:49:25.754Z,15.00
2019-05-03T16:51:54.841Z,15.00
2019-05-03T16:54:25.459Z,15.00
2019-05-03T16:56:54.885Z,15.00
2019-05-03T16:59:22.065Z,15.00
2019-05-03T17:01:49.144Z,14.90
2019-05-03T17:04:25.188Z,14.80
2019-05-03T17:07:11.293Z,14.80
2019-05-03T17:09:49.244Z,14.70
2019-05-03T17:12:18.252Z,14.70
2019-05-03T17:14:45.387Z,14.60
2019-05-03T17:17:14.763Z,14.60
2019-05-03T17:19:41.754Z,14.50
2019-05-03T17:22:08.661Z,14.50
2019-05-03T17:24:37.008Z,14.50
2019-05-03T17:27:04.740Z,14.50
2019-05-03T17:29:31.841Z,14.50
2019-05-03T17:31:58.794Z,14.40
2019-05-03T17:34:27.213Z,14.40
2019-05-03T17:36:56.406Z,14.40
2019-05-03T17:39:42.028Z,14.30
2019-05-03T17:42:26.296Z,14.30
2019-05-03T17:44:54.551Z,14.20
2019-05-03T17:47:21.636Z,14.20
2019-05-03T17:49:48.737Z,14.20
2019-05-03T17:52:17.891Z,14.20
2019-05-03T17:54:46.771Z,14.20
2019-05-03T17:57:18.161Z,14.20
2019-05-03T18:00:04.232Z,14.10
2019-05-03T18:02:33.787Z,14.10
2019-05-03T18:05:19.424Z,14.10
2019-05-03T18:07:57.487Z,14.10
2019-05-03T18:10:25.358Z,14.10
2019-05-03T18:12:52.404Z,14.00
2019-05-03T18:15:19.317Z,14.00
2019-05-03T18:17:46.314Z,14.00
2019-05-03T18:20:15.075Z,14.00
2019-05-03T18:22:42.962Z,14.00
2019-05-03T18:25:10.499Z,13.90
2019-05-03T18:27:37.644Z,13.90
2019-05-03T18:30:05.285Z,13.90
2019-05-03T18:32:34.354Z,13.90
2019-05-03T18:35:01.758Z,13.90
2019-05-03T18:37:29.226Z,13.90
2019-05-03T18:39:56.603Z,13.90
2019-05-03T18:42:30.636Z,13.90
2019-05-03T18:45:01.800Z,13.80
2019-05-03T18:47:28.821Z,13.80
2019-05-03T18:49:55.873Z,13.80
2019-05-03T18:52:22.975Z,13.70
2019-05-03T18:54:50.046Z,13.70
2019-05-03T18:57:17.095Z,13.70
2019-05-03T18:59:44.940Z,13.60
2019-05-03T19:02:12.146Z,13.60
2019-05-03T19:04:45.265Z,13.50
2019-05-03T19:07:14.934Z,13.50
2019-05-03T19:09:50.068Z,13.50
2019-05-03T19:12:31.134Z,13.40
2019-05-03T19:14:58.281Z,13.40
2019-05-03T19:17:27.197Z,13.40
2019-05-03T19:19:59.013Z,13.30
2019-05-03T19:22:26.274Z,13.30
2019-05-03T19:24:53.345Z,13.30
2019-05-03T19:27:20.306Z,13.30
2019-05-03T19:29:48.259Z,13.30
2019-05-03T19:32:15.564Z,13.30
2019-05-03T19:34:50.359Z,13.20
2019-05-03T19:37:14.544Z,13.10
2019-05-03T19:39:41.665Z,13.10
2019-05-03T19:42:08.672Z,13.10
2019-05-03T19:44:38.210Z,13.10
2019-05-03T19:47:06.742Z,13.10
2019-05-03T19:49:35.344Z,13.00
2019-05-03T19:52:02.651Z,13.00
2019-05-03T19:54:30.969Z,13.00
2019-05-03T19:56:58.114Z,12.90
2019-05-03T19:59:43.621Z,12.90
2019-05-03T20:02:12.616Z,12.90
2019-05-03T20:04:41.530Z,12.90
2019-05-03T20:07:17.175Z,12.80
2019-05-03T20:09:44.610Z,12.80
2019-05-03T20:12:11.766Z,12.80
2019-05-03T20:14:38.873Z,12.70
2019-05-03T20:17:06.740Z,12.70
2019-05-03T20:19:34.700Z,12.60
2019-05-03T20:22:01.865Z,12.60
2019-05-03T20:24:30.842Z,12.60
2019-05-03T20:26:57.718Z,12.60
2019-05-03T20:29:25.132Z,12.50
2019-05-03T20:31:52.344Z,12.50
2019-05-03T20:34:19.595Z,12.40
2019-05-03T20:36:46.686Z,12.40
2019-05-03T20:39:14.823Z,12.40
2019-05-03T20:41:42.124Z,12.30
2019-05-03T20:44:10.984Z,12.30
2019-05-03T20:46:39.787Z,12.30
2019-05-03T20:49:08.702Z,12.30
2019-05-03T20:51:35.751Z,12.30
2019-05-03T20:54:04.890Z,12.30
2019-05-03T20:56:31.955Z,12.30
2019-05-03T20:58:58.993Z,12.30
2019-05-03T21:01:27.428Z,12.20
2019-05-03T21:03:54.462Z,12.20
2019-05-03T21:06:33.083Z,12.10
2019-05-03T21:08:53.425Z,12.20
2019-05-03T21:11:20.032Z,12.10
2019-05-03T21:13:47.087Z,12.10
2019-05-03T21:16:18.934Z,12.10
2019-05-03T21:18:50.988Z,12.10
2019-05-03T21:21:38.168Z,12.10
2019-05-03T21:24:16.254Z,12.10
2019-05-03T21:26:45.049Z,12.00
2019-05-03T21:29:12.264Z,12.00
2019-05-03T21:31:39.311Z,12.00
2019-05-03T21:34:06.452Z,11.90
2019-05-03T21:36:34.819Z,11.90
2019-05-03T21:39:02.077Z,11.90
2019-05-03T21:41:29.297Z,11.80
2019-05-03T21:43:56.378Z,11.80
2019-05-03T21:46:27.703Z,11.80
2019-05-03T21:48:59.551Z,11.70
2019-05-03T21:51:26.551Z,11.70
2019-05-03T21:53:53.572Z,11.70
2019-05-03T21:56:20.515Z,11.70
2019-05-03T21:58:47.536Z,11.70
2019-05-03T22:01:15.581Z,11.70
2019-05-03T22:03:44.629Z,11.80
2019-05-03T22:06:11.618Z,11.80
2019-05-03T22:08:38.752Z,11.80
2019-05-03T22:11:05.813Z,11.80
2019-05-03T22:13:34.608Z,11.80
2019-05-03T22:16:20.030Z,11.80
2019-05-03T22:18:47.059Z,11.80
2019-05-03T22:21:28.316Z,11.90
2019-05-03T22:24:00.181Z,11.80
2019-05-03T22:26:45.656Z,11.70
2019-05-03T22:29:14.426Z,11.70
2019-05-03T22:31:42.045Z,11.70
2019-05-03T22:34:08.985Z,11.60
2019-05-03T22:36:35.939Z,11.60
2019-05-03T22:39:05.476Z,11.60
2019-05-03T22:41:34.638Z,11.60
2019-05-03T22:44:01.352Z,11.70
2019-05-03T22:46:28.365Z,11.70
2019-05-03T22:48:55.423Z,11.60
2019-05-03T22:51:24.346Z,11.70
2019-05-03T22:53:51.355Z,11.70
2019-05-03T22:56:18.360Z,11.80
2019-05-03T22:58:45.727Z,11.80
2019-05-03T23:01:16.456Z,11.70
2019-05-03T23:03:41.720Z,11.70
2019-05-03T23:06:19.485Z,11.70
2019-05-03T23:08:37.834Z,11.70
2019-05-03T23:11:05.290Z,11.60
2019-05-03T23:13:32.459Z,11.60
2019-05-03T23:15:59.501Z,11.70
2019-05-03T23:18:26.601Z,11.70
2019-05-03T23:20:58.146Z,11.60
2019-05-03T23:23:45.566Z,11.60
2019-05-03T23:26:14.739Z,11.60
2019-05-03T23:28:41.564Z,11.70
2019-05-03T23:31:08.724Z,11.70
2019-05-03T23:33:35.618Z,11.80
2019-05-03T23:36:04.585Z,11.80
2019-05-03T23:38:31.684Z,11.80
2019-05-03T23:40:58.807Z,11.70
2019-05-03T23:43:25.826Z,11.70
2019-05-03T23:45:54.462Z,11.70
2019-05-03T23:48:21.572Z,11.70
2019-05-03T23:50:49.892Z,11.70
2019-05-03T23:53:16.881Z,11.70
2019-05-03T23:55:45.765Z,11.60
2019-05-03T23:58:12.813Z,11.60
